METAR AND TAF INFORMATION
METAR FOR LELL
ADDS - METARS form results

(0050 UTC 21 May 2019)
Data provider http://aviationweather.gov/metar/data/
 
METAR text: LELL 210030Z AUTO 29004KT 9999 NCD 10/09 Q1015
Conditions at: LELL (SABADELL , ES) observed 0030 UTC 21 May 2019
Temperature: 10.0°C (50°F)
Dewpoint: 9.0°C (48°F) [RH = 93%]
Pressure (altimeter): 29.97 inches Hg (1015.0 mb)
Winds: from the WNW (290 degrees) at 5 MPH (4 knots; 2.1 m/s)
Visibility: 6 or more miles (10+ km)
Ceiling: at least 12,000 feet AGL
Clouds: sky clear below 12,000 feet AGL
Weather: no significant weather observed at this time

METAR text: LELL 210000Z AUTO 30003KT 9999 NCD 11/09 Q1015
Conditions at: LELL (SABADELL , ES) observed 0000 UTC 21 May 2019
Temperature: 11.0°C (52°F)
Dewpoint: 9.0°C (48°F) [RH = 87%]
Pressure (altimeter): 29.97 inches Hg (1015.0 mb)
Winds: from the WNW (300 degrees) at 3 MPH (3 knots; 1.5 m/s)
Visibility: 6 or more miles (10+ km)
Ceiling: at least 12,000 feet AGL
Clouds: sky clear below 12,000 feet AGL
Weather: no significant weather observed at this time

Forecast for: LELL (SABADELL , ES)
Text: TAF LELL 201400Z 2015/2115 13009KT 9999 FEW060 TX23/2113Z TN08/2105Z
Forecast period: 1500 to 1900 UTC 20 May 2019
Forecast type: FROM: standard forecast or significant change
Winds: from the SE (130 degrees) at 10 MPH (9 knots; 4.6 m/s)
Visibility: 6 or more miles 10+ km)
Ceiling: at least 12,000 feet AGL
Clouds: few clouds at 6000 feet AGL
Weather: no significant weather forecast for this period
Text: BECMG 2019/2022 VRB03KT
Forecast period: 1900 UTC 20 May 2019 to 0600 UTC 21 May 2019
Forecast type: BECOMING: Conditions expected to become as follows by 2200 UTC 20 May 2019
Winds: variable direction winds at 3 MPH (3 knots; 1.5 m/s)
Visibility: 6 or more miles 10+ km)
Ceiling: at least 12,000 feet AGL
Clouds: few clouds at 6000 feet AGL
Weather: no significant weather forecast for this period
Text: BECMG 2106/2108 20007KT
Forecast period: 0600 to 1500 UTC 21 May 2019
Forecast type: BECOMING: Conditions expected to become as follows by 0800 UTC 21 May 2019
Winds: from the SSW (200 degrees) at 8 MPH (7 knots; 3.6 m/s)
Visibility: 6 or more miles 10+ km)
Ceiling: at least 12,000 feet AGL
Clouds: few clouds at 6000 feet AGL
Weather: no significant weather forecast for this period

 AIRPORT MAP

 RUNWAY INFORMATION
Runway 13 Runway length 2953 ft Runway width 0 ft
Runway elevation 485 ft Runway displaced threshold 0 ft Runway heading 0
Runway 31 Runway length 2953 ft Runway width 0 ft
Runway elevation 445 ft Runway displaced threshold 0 ft Runway heading 0

 AIRPORT FREQUENCIES

 AIRPORT NEAR NAVIGATION AIDS
Type NDB Name Sabadell Frequency 367 KHZ